Elmsdale, Canada
Current Conditions -  °F | °C
As of 10:00 AM on Monday 20 Oct 2014 (Local Time) from CYHZ Reporting Station
Scattered Clouds Scattered Clouds  
Wind Chill: 29°   Ceiling: Unl
Heat Index: 39°   Visibility: 15mi
Dew Point: 34°   Wind: 22mph
Humidity: 81%   Direction: 280°W
Pressure: 29.74"   Gusts: 30mph
Location:  44.97°N, 63.52°W
Report Text: CYHZ 201300Z 28019G26KT 15SM FEW020 SCT040 04/01 A2974 RMK CU1SC3 SLP075
Loading
Personal Weather Stations






























Interactive Weather Map
Tropical Storm Tracking
New forecast layout! Learn more

10-Day Weather Forecast

Advertisements
Track Severe Weather on mobile